sensor_id;sensor_type;location;lat;lon;timestamp;P1;durP1;ratioP1;P2;durP2;ratioP2
46689;SDS011;32423;45.398;10.874;2023-05-10T00:01:21;3.83;;;2.67;;
46689;SDS011;32423;45.398;10.874;2023-05-10T00:04:10;3.20;;;2.35;;
46689;SDS011;32423;45.398;10.874;2023-05-10T00:07:05;3.03;;;2.45;;
46689;SDS011;32423;45.398;10.874;2023-05-10T00:09:59;3.15;;;2.42;;
46689;SDS011;32423;45.398;10.874;2023-05-10T00:12:52;3.30;;;2.70;;
46689;SDS011;32423;45.398;10.874;2023-05-10T00:15:46;6.38;;;3.08;;
46689;SDS011;32423;45.398;10.874;2023-05-10T00:18:38;4.15;;;3.10;;
46689;SDS011;32423;45.398;10.874;2023-05-10T00:21:33;5.47;;;4.00;;
46689;SDS011;32423;45.398;10.874;2023-05-10T00:24:27;3.30;;;2.70;;
46689;SDS011;32423;45.398;10.874;2023-05-10T00:27:22;8.77;;;4.28;;
46689;SDS011;32423;45.398;10.874;2023-05-10T00:30:14;4.28;;;3.55;;
46689;SDS011;32423;45.398;10.874;2023-05-10T00:33:09;5.72;;;3.90;;
46689;SDS011;32423;45.398;10.874;2023-05-10T00:36:03;3.53;;;2.42;;
46689;SDS011;32423;45.398;10.874;2023-05-10T00:38:58;5.25;;;3.20;;
46689;SDS011;32423;45.398;10.874;2023-05-10T00:41:52;4.63;;;3.45;;
46689;SDS011;32423;45.398;10.874;2023-05-10T00:44:47;5.40;;;3.17;;
46689;SDS011;32423;45.398;10.874;2023-05-10T00:47:42;4.05;;;3.00;;
46689;SDS011;32423;45.398;10.874;2023-05-10T00:50:37;8.77;;;2.90;;
46689;SDS011;32423;45.398;10.874;2023-05-10T00:53:32;4.03;;;2.08;;
46689;SDS011;32423;45.398;10.874;2023-05-10T00:56:28;6.18;;;2.05;;
46689;SDS011;32423;45.398;10.874;2023-05-10T00:59:22;2.63;;;2.30;;
46689;SDS011;32423;45.398;10.874;2023-05-10T01:05:10;2.78;;;1.63;;
46689;SDS011;32423;45.398;10.874;2023-05-10T01:08:05;3.45;;;1.60;;
46689;SDS011;32423;45.398;10.874;2023-05-10T01:10:59;2.40;;;1.30;;
46689;SDS011;32423;45.398;10.874;2023-05-10T01:13:52;2.42;;;1.70;;
46689;SDS011;32423;45.398;10.874;2023-05-10T01:16:50;2.80;;;1.63;;
46689;SDS011;32423;45.398;10.874;2023-05-10T01:19:42;3.35;;;1.65;;
46689;SDS011;32423;45.398;10.874;2023-05-10T01:26:01;2.38;;;1.58;;
46689;SDS011;32423;45.398;10.874;2023-05-10T01:35:19;2.45;;;1.40;;
46689;SDS011;32423;45.398;10.874;2023-05-10T01:41:43;2.47;;;1.25;;
46689;SDS011;32423;45.398;10.874;2023-05-10T01:44:38;3.92;;;1.10;;
46689;SDS011;32423;45.398;10.874;2023-05-10T01:47:37;1.30;;;0.98;;
46689;SDS011;32423;45.398;10.874;2023-05-10T01:50:33;2.25;;;1.33;;
46689;SDS011;32423;45.398;10.874;2023-05-10T01:53:28;3.28;;;1.23;;
46689;SDS011;32423;45.398;10.874;2023-05-10T01:56:22;1.25;;;0.98;;
46689;SDS011;32423;45.398;10.874;2023-05-10T01:59:20;3.47;;;1.63;;
46689;SDS011;32423;45.398;10.874;2023-05-10T02:02:20;5.45;;;1.40;;
46689;SDS011;32423;45.398;10.874;2023-05-10T02:05:11;1.67;;;1.27;;
46689;SDS011;32423;45.398;10.874;2023-05-10T02:08:04;2.92;;;1.20;;
46689;SDS011;32423;45.398;10.874;2023-05-10T02:11:01;1.73;;;1.10;;
46689;SDS011;32423;45.398;10.874;2023-05-10T02:13:54;4.30;;;1.83;;
46689;SDS011;32423;45.398;10.874;2023-05-10T02:16:50;2.47;;;1.05;;
46689;SDS011;32423;45.398;10.874;2023-05-10T02:19:45;1.08;;;0.85;;
46689;SDS011;32423;45.398;10.874;2023-05-10T02:22:39;5.35;;;1.55;;
46689;SDS011;32423;45.398;10.874;2023-05-10T02:25:32;4.68;;;1.35;;
46689;SDS011;32423;45.398;10.874;2023-05-10T02:28:26;1.30;;;1.10;;
46689;SDS011;32423;45.398;10.874;2023-05-10T02:31:23;3.40;;;1.40;;
46689;SDS011;32423;45.398;10.874;2023-05-10T02:34:16;1.60;;;1.48;;
46689;SDS011;32423;45.398;10.874;2023-05-10T02:37:08;4.00;;;1.40;;
46689;SDS011;32423;45.398;10.874;2023-05-10T02:40:05;7.30;;;1.67;;
46689;SDS011;32423;45.398;10.874;2023-05-10T02:43:01;2.88;;;1.65;;
46689;SDS011;32423;45.398;10.874;2023-05-10T02:45:58;2.67;;;1.80;;
46689;SDS011;32423;45.398;10.874;2023-05-10T02:48:55;2.30;;;1.48;;
46689;SDS011;32423;45.398;10.874;2023-05-10T02:51:50;1.83;;;1.10;;
46689;SDS011;32423;45.398;10.874;2023-05-10T02:54:48;3.17;;;1.20;;
46689;SDS011;32423;45.398;10.874;2023-05-10T02:57:41;2.35;;;1.77;;
46689;SDS011;32423;45.398;10.874;2023-05-10T03:00:38;4.45;;;1.90;;
46689;SDS011;32423;45.398;10.874;2023-05-10T03:03:30;2.65;;;1.58;;
46689;SDS011;32423;45.398;10.874;2023-05-10T03:06:22;3.33;;;1.67;;
46689;SDS011;32423;45.398;10.874;2023-05-10T03:09:16;3.90;;;1.90;;
46689;SDS011;32423;45.398;10.874;2023-05-10T03:18:57;5.57;;;1.80;;
46689;SDS011;32423;45.398;10.874;2023-05-10T03:22:03;3.78;;;1.40;;
46689;SDS011;32423;45.398;10.874;2023-05-10T03:24:58;2.00;;;1.58;;
46689;SDS011;32423;45.398;10.874;2023-05-10T03:27:56;3.65;;;1.90;;
46689;SDS011;32423;45.398;10.874;2023-05-10T03:30:53;9.27;;;3.97;;
46689;SDS011;32423;45.398;10.874;2023-05-10T03:33:50;2.90;;;1.70;;
46689;SDS011;32423;45.398;10.874;2023-05-10T03:36:46;3.25;;;1.80;;
46689;SDS011;32423;45.398;10.874;2023-05-10T03:39:41;4.60;;;2.45;;
46689;SDS011;32423;45.398;10.874;2023-05-10T03:42:35;2.15;;;1.02;;
46689;SDS011;32423;45.398;10.874;2023-05-10T03:45:30;3.28;;;2.45;;
46689;SDS011;32423;45.398;10.874;2023-05-10T03:48:25;2.78;;;1.83;;
46689;SDS011;32423;45.398;10.874;2023-05-10T03:51:20;3.67;;;1.98;;
46689;SDS011;32423;45.398;10.874;2023-05-10T03:54:14;3.33;;;2.22;;
46689;SDS011;32423;45.398;10.874;2023-05-10T03:57:09;2.20;;;1.80;;
46689;SDS011;32423;45.398;10.874;2023-05-10T04:00:03;7.70;;;1.70;;
46689;SDS011;32423;45.398;10.874;2023-05-10T04:03:05;2.40;;;1.95;;
46689;SDS011;32423;45.398;10.874;2023-05-10T04:06:02;3.63;;;1.73;;
46689;SDS011;32423;45.398;10.874;2023-05-10T04:08:57;2.53;;;1.98;;
46689;SDS011;32423;45.398;10.874;2023-05-10T04:11:53;4.13;;;2.00;;
46689;SDS011;32423;45.398;10.874;2023-05-10T04:14:47;2.65;;;1.70;;
46689;SDS011;32423;45.398;10.874;2023-05-10T04:17:42;2.72;;;1.90;;
46689;SDS011;32423;45.398;10.874;2023-05-10T04:20:36;4.27;;;2.00;;
46689;SDS011;32423;45.398;10.874;2023-05-10T04:23:31;3.15;;;2.10;;
46689;SDS011;32423;45.398;10.874;2023-05-10T04:26:26;3.15;;;1.90;;
46689;SDS011;32423;45.398;10.874;2023-05-10T04:29:20;2.13;;;1.73;;
46689;SDS011;32423;45.398;10.874;2023-05-10T04:32:15;3.17;;;1.95;;
46689;SDS011;32423;45.398;10.874;2023-05-10T04:35:09;2.72;;;2.15;;
46689;SDS011;32423;45.398;10.874;2023-05-10T04:38:01;3.50;;;2.45;;
46689;SDS011;32423;45.398;10.874;2023-05-10T04:41:02;2.85;;;1.83;;
46689;SDS011;32423;45.398;10.874;2023-05-10T04:43:56;21.67;;;2.00;;
46689;SDS011;32423;45.398;10.874;2023-05-10T04:46:50;5.13;;;2.10;;
46689;SDS011;32423;45.398;10.874;2023-05-10T04:49:45;2.10;;;1.25;;
46689;SDS011;32423;45.398;10.874;2023-05-10T04:52:37;3.10;;;1.90;;
46689;SDS011;32423;45.398;10.874;2023-05-10T04:55:31;5.40;;;2.10;;
46689;SDS011;32423;45.398;10.874;2023-05-10T04:58:26;2.72;;;1.67;;
46689;SDS011;32423;45.398;10.874;2023-05-10T05:01:18;2.65;;;1.80;;
46689;SDS011;32423;45.398;10.874;2023-05-10T05:04:12;3.75;;;1.88;;
46689;SDS011;32423;45.398;10.874;2023-05-10T05:07:07;3.00;;;1.90;;
46689;SDS011;32423;45.398;10.874;2023-05-10T05:10:01;4.15;;;1.92;;
46689;SDS011;32423;45.398;10.874;2023-05-10T05:12:56;3.25;;;2.15;;
46689;SDS011;32423;45.398;10.874;2023-05-10T05:15:48;4.90;;;2.13;;
46689;SDS011;32423;45.398;10.874;2023-05-10T05:18:43;3.97;;;2.03;;
46689;SDS011;32423;45.398;10.874;2023-05-10T05:21:32;5.72;;;2.50;;
46689;SDS011;32423;45.398;10.874;2023-05-10T05:24:24;3.33;;;2.58;;
46689;SDS011;32423;45.398;10.874;2023-05-10T05:27:19;4.90;;;2.40;;
46689;SDS011;32423;45.398;10.874;2023-05-10T05:30:13;4.47;;;2.33;;
46689;SDS011;32423;45.398;10.874;2023-05-10T05:33:08;3.28;;;2.05;;
46689;SDS011;32423;45.398;10.874;2023-05-10T05:35:59;5.00;;;2.00;;
46689;SDS011;32423;45.398;10.874;2023-05-10T05:38:54;3.25;;;2.25;;
46689;SDS011;32423;45.398;10.874;2023-05-10T05:41:49;3.65;;;2.17;;
46689;SDS011;32423;45.398;10.874;2023-05-10T05:44:41;5.72;;;2.38;;
46689;SDS011;32423;45.398;10.874;2023-05-10T05:47:33;7.25;;;2.15;;
46689;SDS011;32423;45.398;10.874;2023-05-10T05:50:28;3.97;;;2.08;;
46689;SDS011;32423;45.398;10.874;2023-05-10T05:53:22;2.28;;;1.80;;
46689;SDS011;32423;45.398;10.874;2023-05-10T05:56:12;5.28;;;2.20;;
46689;SDS011;32423;45.398;10.874;2023-05-10T05:59:06;3.30;;;1.92;;
46689;SDS011;32423;45.398;10.874;2023-05-10T06:02:01;4.18;;;2.08;;
46689;SDS011;32423;45.398;10.874;2023-05-10T06:04:56;4.32;;;1.60;;
46689;SDS011;32423;45.398;10.874;2023-05-10T06:07:50;2.83;;;2.00;;
46689;SDS011;32423;45.398;10.874;2023-05-10T06:10:42;3.73;;;1.70;;
46689;SDS011;32423;45.398;10.874;2023-05-10T06:13:34;3.45;;;1.65;;
46689;SDS011;32423;45.398;10.874;2023-05-10T06:16:29;2.15;;;1.75;;
46689;SDS011;32423;45.398;10.874;2023-05-10T06:19:21;4.63;;;1.42;;
46689;SDS011;32423;45.398;10.874;2023-05-10T06:22:18;2.53;;;1.75;;
46689;SDS011;32423;45.398;10.874;2023-05-10T06:25:22;2.00;;;1.60;;
46689;SDS011;32423;45.398;10.874;2023-05-10T06:28:14;4.00;;;1.58;;
46689;SDS011;32423;45.398;10.874;2023-05-10T06:31:06;6.18;;;1.83;;
46689;SDS011;32423;45.398;10.874;2023-05-10T06:34:01;2.53;;;1.58;;
46689;SDS011;32423;45.398;10.874;2023-05-10T06:36:55;1.75;;;1.50;;
46689;SDS011;32423;45.398;10.874;2023-05-10T06:39:45;2.83;;;1.42;;
46689;SDS011;32423;45.398;10.874;2023-05-10T06:42:40;3.10;;;1.17;;
46689;SDS011;32423;45.398;10.874;2023-05-10T06:45:29;4.28;;;1.10;;
46689;SDS011;32423;45.398;10.874;2023-05-10T06:48:21;3.47;;;1.13;;
46689;SDS011;32423;45.398;10.874;2023-05-10T06:51:16;5.60;;;1.00;;
46689;SDS011;32423;45.398;10.874;2023-05-10T06:54:10;4.47;;;1.95;;
46689;SDS011;32423;45.398;10.874;2023-05-10T06:57:05;4.93;;;1.83;;
46689;SDS011;32423;45.398;10.874;2023-05-10T06:59:59;9.93;;;1.20;;
46689;SDS011;32423;45.398;10.874;2023-05-10T07:02:55;1.23;;;1.08;;
46689;SDS011;32423;45.398;10.874;2023-05-10T07:05:49;2.65;;;1.30;;
46689;SDS011;32423;45.398;10.874;2023-05-10T07:08:44;1.87;;;1.17;;
46689;SDS011;32423;45.398;10.874;2023-05-10T07:11:39;3.97;;;1.23;;
46689;SDS011;32423;45.398;10.874;2023-05-10T07:14:33;3.20;;;2.07;;
46689;SDS011;32423;45.398;10.874;2023-05-10T07:17:27;1.77;;;1.37;;
46689;SDS011;32423;45.398;10.874;2023-05-10T07:20:22;4.30;;;1.70;;
46689;SDS011;32423;45.398;10.874;2023-05-10T07:23:14;1.48;;;1.20;;
46689;SDS011;32423;45.398;10.874;2023-05-10T07:26:12;6.70;;;2.30;;
46689;SDS011;32423;45.398;10.874;2023-05-10T07:29:04;3.20;;;1.70;;
46689;SDS011;32423;45.398;10.874;2023-05-10T07:31:54;2.05;;;1.67;;
46689;SDS011;32423;45.398;10.874;2023-05-10T07:34:46;8.38;;;2.00;;
46689;SDS011;32423;45.398;10.874;2023-05-10T07:37:40;6.20;;;1.70;;
46689;SDS011;32423;45.398;10.874;2023-05-10T07:40:34;4.28;;;2.03;;
46689;SDS011;32423;45.398;10.874;2023-05-10T07:43:29;2.60;;;1.50;;
46689;SDS011;32423;45.398;10.874;2023-05-10T07:46:24;2.40;;;1.40;;
46689;SDS011;32423;45.398;10.874;2023-05-10T07:49:18;6.63;;;1.55;;
46689;SDS011;32423;45.398;10.874;2023-05-10T07:52:13;6.35;;;1.90;;
46689;SDS011;32423;45.398;10.874;2023-05-10T07:55:08;1.50;;;1.27;;
46689;SDS011;32423;45.398;10.874;2023-05-10T08:00:50;3.22;;;1.73;;
46689;SDS011;32423;45.398;10.874;2023-05-10T08:03:42;1.63;;;1.40;;
46689;SDS011;32423;45.398;10.874;2023-05-10T08:06:37;3.60;;;1.70;;
46689;SDS011;32423;45.398;10.874;2023-05-10T08:09:30;3.80;;;1.60;;
46689;SDS011;32423;45.398;10.874;2023-05-10T08:12:24;2.58;;;1.98;;
46689;SDS011;32423;45.398;10.874;2023-05-10T08:15:16;3.58;;;1.80;;
46689;SDS011;32423;45.398;10.874;2023-05-10T08:18:11;5.22;;;2.10;;
46689;SDS011;32423;45.398;10.874;2023-05-10T08:21:06;4.63;;;1.52;;
46689;SDS011;32423;45.398;10.874;2023-05-10T08:23:58;3.55;;;2.17;;
46689;SDS011;32423;45.398;10.874;2023-05-10T08:26:51;2.75;;;1.42;;
46689;SDS011;32423;45.398;10.874;2023-05-10T08:29:40;2.92;;;1.88;;
46689;SDS011;32423;45.398;10.874;2023-05-10T08:32:35;3.67;;;1.48;;
46689;SDS011;32423;45.398;10.874;2023-05-10T08:35:27;2.58;;;1.42;;
46689;SDS011;32423;45.398;10.874;2023-05-10T08:38:21;8.02;;;1.77;;
46689;SDS011;32423;45.398;10.874;2023-05-10T08:41:16;4.57;;;2.00;;
46689;SDS011;32423;45.398;10.874;2023-05-10T08:44:11;3.35;;;1.52;;
46689;SDS011;32423;45.398;10.874;2023-05-10T08:47:07;3.67;;;1.35;;
46689;SDS011;32423;45.398;10.874;2023-05-10T08:50:03;3.72;;;1.50;;
46689;SDS011;32423;45.398;10.874;2023-05-10T08:52:58;3.97;;;1.95;;
46689;SDS011;32423;45.398;10.874;2023-05-10T08:55:50;1.83;;;1.40;;
46689;SDS011;32423;45.398;10.874;2023-05-10T08:58:45;2.60;;;1.95;;
46689;SDS011;32423;45.398;10.874;2023-05-10T09:01:37;5.20;;;2.53;;
46689;SDS011;32423;45.398;10.874;2023-05-10T09:04:31;5.03;;;1.70;;
46689;SDS011;32423;45.398;10.874;2023-05-10T09:07:27;2.80;;;1.45;;
46689;SDS011;32423;45.398;10.874;2023-05-10T09:10:21;5.20;;;2.22;;
46689;SDS011;32423;45.398;10.874;2023-05-10T09:13:17;4.30;;;1.67;;
46689;SDS011;32423;45.398;10.874;2023-05-10T09:16:11;2.05;;;1.63;;
46689;SDS011;32423;45.398;10.874;2023-05-10T09:19:05;3.80;;;1.88;;
46689;SDS011;32423;45.398;10.874;2023-05-10T09:22:00;2.08;;;1.73;;
46689;SDS011;32423;45.398;10.874;2023-05-10T09:25:09;2.50;;;1.60;;
46689;SDS011;32423;45.398;10.874;2023-05-10T09:28:03;2.47;;;1.63;;
46689;SDS011;32423;45.398;10.874;2023-05-10T09:31:00;5.00;;;1.50;;
46689;SDS011;32423;45.398;10.874;2023-05-10T09:33:54;4.60;;;2.00;;
46689;SDS011;32423;45.398;10.874;2023-05-10T09:36:55;2.42;;;1.50;;
46689;SDS011;32423;45.398;10.874;2023-05-10T09:39:53;4.07;;;1.55;;
46689;SDS011;32423;45.398;10.874;2023-05-10T09:42:56;2.50;;;1.65;;
46689;SDS011;32423;45.398;10.874;2023-05-10T09:45:52;2.08;;;1.42;;
46689;SDS011;32423;45.398;10.874;2023-05-10T09:48:47;2.80;;;1.73;;
46689;SDS011;32423;45.398;10.874;2023-05-10T09:51:41;2.20;;;1.45;;
46689;SDS011;32423;45.398;10.874;2023-05-10T09:54:36;2.63;;;1.60;;
46689;SDS011;32423;45.398;10.874;2023-05-10T09:57:34;2.17;;;1.27;;
46689;SDS011;32423;45.398;10.874;2023-05-10T10:00:33;2.10;;;1.60;;
46689;SDS011;32423;45.398;10.874;2023-05-10T10:03:26;2.17;;;1.30;;
46689;SDS011;32423;45.398;10.874;2023-05-10T10:06:23;4.43;;;2.22;;
46689;SDS011;32423;45.398;10.874;2023-05-10T10:09:15;2.08;;;1.50;;
46689;SDS011;32423;45.398;10.874;2023-05-10T10:12:07;2.53;;;1.35;;
46689;SDS011;32423;45.398;10.874;2023-05-10T10:15:02;3.00;;;1.33;;
46689;SDS011;32423;45.398;10.874;2023-05-10T10:17:58;4.68;;;1.73;;
46689;SDS011;32423;45.398;10.874;2023-05-10T10:20:53;4.70;;;1.70;;
46689;SDS011;32423;45.398;10.874;2023-05-10T10:23:48;2.03;;;1.30;;
46689;SDS011;32423;45.398;10.874;2023-05-10T10:26:40;3.50;;;2.00;;
46689;SDS011;32423;45.398;10.874;2023-05-10T10:29:41;4.97;;;1.63;;
46689;SDS011;32423;45.398;10.874;2023-05-10T10:36:01;6.25;;;1.77;;
46689;SDS011;32423;45.398;10.874;2023-05-10T10:39:01;3.22;;;1.88;;
46689;SDS011;32423;45.398;10.874;2023-05-10T10:41:58;4.03;;;2.60;;
46689;SDS011;32423;45.398;10.874;2023-05-10T10:44:53;2.70;;;1.65;;
46689;SDS011;32423;45.398;10.874;2023-05-10T10:51:13;3.90;;;1.90;;
46689;SDS011;32423;45.398;10.874;2023-05-10T10:54:18;3.90;;;1.98;;
46689;SDS011;32423;45.398;10.874;2023-05-10T10:57:20;3.67;;;1.77;;
46689;SDS011;32423;45.398;10.874;2023-05-10T11:00:26;7.68;;;1.98;;
46689;SDS011;32423;45.398;10.874;2023-05-10T11:03:23;5.20;;;1.80;;
46689;SDS011;32423;45.398;10.874;2023-05-10T11:06:18;2.10;;;1.90;;
46689;SDS011;32423;45.398;10.874;2023-05-10T11:09:22;5.10;;;1.70;;
46689;SDS011;32423;45.398;10.874;2023-05-10T11:12:15;3.97;;;1.70;;
46689;SDS011;32423;45.398;10.874;2023-05-10T11:15:10;2.15;;;1.60;;
46689;SDS011;32423;45.398;10.874;2023-05-10T11:18:24;4.13;;;1.67;;
46689;SDS011;32423;45.398;10.874;2023-05-10T11:21:15;3.97;;;1.80;;
46689;SDS011;32423;45.398;10.874;2023-05-10T11:24:12;1.95;;;1.60;;
46689;SDS011;32423;45.398;10.874;2023-05-10T11:27:08;8.50;;;2.10;;
46689;SDS011;32423;45.398;10.874;2023-05-10T11:30:04;5.47;;;1.48;;
46689;SDS011;32423;45.398;10.874;2023-05-10T11:32:54;6.68;;;2.30;;
46689;SDS011;32423;45.398;10.874;2023-05-10T11:35:46;4.53;;;2.03;;
46689;SDS011;32423;45.398;10.874;2023-05-10T11:38:41;3.92;;;2.55;;
46689;SDS011;32423;45.398;10.874;2023-05-10T11:41:35;4.50;;;1.77;;
46689;SDS011;32423;45.398;10.874;2023-05-10T11:44:31;2.10;;;1.63;;
46689;SDS011;32423;45.398;10.874;2023-05-10T11:47:23;3.80;;;2.05;;
46689;SDS011;32423;45.398;10.874;2023-05-10T11:50:17;3.83;;;2.23;;
46689;SDS011;32423;45.398;10.874;2023-05-10T11:53:12;4.70;;;2.03;;
46689;SDS011;32423;45.398;10.874;2023-05-10T11:56:07;1.80;;;1.55;;
46689;SDS011;32423;45.398;10.874;2023-05-10T11:59:02;2.22;;;1.52;;
46689;SDS011;32423;45.398;10.874;2023-05-10T12:01:58;2.60;;;1.70;;
46689;SDS011;32423;45.398;10.874;2023-05-10T12:04:50;2.55;;;2.08;;
46689;SDS011;32423;45.398;10.874;2023-05-10T12:07:43;4.00;;;2.40;;
46689;SDS011;32423;45.398;10.874;2023-05-10T12:10:37;4.23;;;2.60;;
46689;SDS011;32423;45.398;10.874;2023-05-10T12:13:32;3.27;;;1.90;;
46689;SDS011;32423;45.398;10.874;2023-05-10T12:16:26;4.95;;;2.83;;
46689;SDS011;32423;45.398;10.874;2023-05-10T12:19:23;2.90;;;2.40;;
46689;SDS011;32423;45.398;10.874;2023-05-10T12:22:15;2.70;;;1.38;;
46689;SDS011;32423;45.398;10.874;2023-05-10T12:25:11;3.70;;;1.63;;
46689;SDS011;32423;45.398;10.874;2023-05-10T12:28:04;3.45;;;2.05;;
46689;SDS011;32423;45.398;10.874;2023-05-10T12:31:02;4.30;;;1.90;;
46689;SDS011;32423;45.398;10.874;2023-05-10T12:33:54;2.92;;;2.25;;
46689;SDS011;32423;45.398;10.874;2023-05-10T12:36:49;6.10;;;2.22;;
46689;SDS011;32423;45.398;10.874;2023-05-10T12:39:45;3.05;;;1.90;;
46689;SDS011;32423;45.398;10.874;2023-05-10T12:42:39;8.73;;;2.40;;
46689;SDS011;32423;45.398;10.874;2023-05-10T12:45:31;5.00;;;2.17;;
46689;SDS011;32423;45.398;10.874;2023-05-10T12:48:23;3.85;;;2.10;;
46689;SDS011;32423;45.398;10.874;2023-05-10T12:51:17;2.50;;;1.83;;
46689;SDS011;32423;45.398;10.874;2023-05-10T12:54:11;4.40;;;2.38;;
46689;SDS011;32423;45.398;10.874;2023-05-10T12:57:04;4.95;;;2.28;;
46689;SDS011;32423;45.398;10.874;2023-05-10T12:59:54;3.92;;;1.98;;
46689;SDS011;32423;45.398;10.874;2023-05-10T13:02:49;5.22;;;2.35;;
46689;SDS011;32423;45.398;10.874;2023-05-10T13:05:43;2.60;;;1.75;;
46689;SDS011;32423;45.398;10.874;2023-05-10T13:08:38;2.15;;;1.50;;
46689;SDS011;32423;45.398;10.874;2023-05-10T13:11:32;2.83;;;2.10;;
46689;SDS011;32423;45.398;10.874;2023-05-10T13:14:24;2.78;;;2.38;;
46689;SDS011;32423;45.398;10.874;2023-05-10T13:17:19;4.07;;;2.70;;
46689;SDS011;32423;45.398;10.874;2023-05-10T13:20:13;2.42;;;2.22;;
46689;SDS011;32423;45.398;10.874;2023-05-10T13:23:06;5.32;;;2.65;;
46689;SDS011;32423;45.398;10.874;2023-05-10T13:25:55;4.90;;;2.50;;
46689;SDS011;32423;45.398;10.874;2023-05-10T13:28:50;2.20;;;1.60;;
46689;SDS011;32423;45.398;10.874;2023-05-10T13:31:45;3.50;;;2.55;;
46689;SDS011;32423;45.398;10.874;2023-05-10T13:34:39;11.65;;;9.02;;
46689;SDS011;32423;45.398;10.874;2023-05-10T13:37:29;1999.90;;;999.90;;
46689;SDS011;32423;45.398;10.874;2023-05-10T13:40:25;1025.40;;;359.27;;
46689;SDS011;32423;45.398;10.874;2023-05-10T13:43:19;1403.23;;;383.77;;
46689;SDS011;32423;45.398;10.874;2023-05-10T13:46:14;291.73;;;185.50;;
46689;SDS011;32423;45.398;10.874;2023-05-10T13:49:08;76.88;;;71.57;;
46689;SDS011;32423;45.398;10.874;2023-05-10T13:51:58;119.07;;;109.60;;
46689;SDS011;32423;45.398;10.874;2023-05-10T13:54:50;151.13;;;139.18;;
46689;SDS011;32423;45.398;10.874;2023-05-10T13:57:44;4.88;;;4.07;;
46689;SDS011;32423;45.398;10.874;2023-05-10T14:00:39;14.27;;;13.27;;
46689;SDS011;32423;45.398;10.874;2023-05-10T14:03:31;204.63;;;186.25;;
46689;SDS011;32423;45.398;10.874;2023-05-10T14:06:26;97.45;;;91.15;;
46689;SDS011;32423;45.398;10.874;2023-05-10T14:09:16;3.35;;;3.05;;
46689;SDS011;32423;45.398;10.874;2023-05-10T14:12:11;4.65;;;4.25;;
46689;SDS011;32423;45.398;10.874;2023-05-10T14:15:05;210.13;;;193.13;;
46689;SDS011;32423;45.398;10.874;2023-05-10T14:18:01;4.20;;;2.72;;
46689;SDS011;32423;45.398;10.874;2023-05-10T14:20:55;491.45;;;253.43;;
46689;SDS011;32423;45.398;10.874;2023-05-10T14:23:50;191.00;;;152.85;;
46689;SDS011;32423;45.398;10.874;2023-05-10T14:26:44;1098.85;;;374.15;;
46689;SDS011;32423;45.398;10.874;2023-05-10T14:29:39;54.67;;;49.65;;
46689;SDS011;32423;45.398;10.874;2023-05-10T14:32:31;1078.63;;;373.70;;
46689;SDS011;32423;45.398;10.874;2023-05-10T14:35:25;450.52;;;215.27;;
46689;SDS011;32423;45.398;10.874;2023-05-10T14:38:17;378.77;;;227.05;;
46689;SDS011;32423;45.398;10.874;2023-05-10T14:41:12;320.98;;;181.43;;
46689;SDS011;32423;45.398;10.874;2023-05-10T14:44:07;108.10;;;99.35;;
46689;SDS011;32423;45.398;10.874;2023-05-10T14:47:01;3.22;;;2.92;;
46689;SDS011;32423;45.398;10.874;2023-05-10T14:49:56;3.60;;;2.47;;
46689;SDS011;32423;45.398;10.874;2023-05-10T14:52:50;2.20;;;1.90;;
46689;SDS011;32423;45.398;10.874;2023-05-10T14:55:42;2.25;;;1.70;;
46689;SDS011;32423;45.398;10.874;2023-05-10T14:58:32;3.78;;;1.83;;
46689;SDS011;32423;45.398;10.874;2023-05-10T15:01:26;2.95;;;1.42;;
46689;SDS011;32423;45.398;10.874;2023-05-10T15:04:20;2.30;;;1.17;;
46689;SDS011;32423;45.398;10.874;2023-05-10T15:07:12;2.33;;;2.08;;
46689;SDS011;32423;45.398;10.874;2023-05-10T15:10:07;4.90;;;1.52;;
46689;SDS011;32423;45.398;10.874;2023-05-10T15:13:00;3.90;;;2.92;;
46689;SDS011;32423;45.398;10.874;2023-05-10T15:15:55;1.45;;;1.30;;
46689;SDS011;32423;45.398;10.874;2023-05-10T15:18:47;2.20;;;1.60;;
46689;SDS011;32423;45.398;10.874;2023-05-10T15:21:42;1.73;;;1.48;;
46689;SDS011;32423;45.398;10.874;2023-05-10T15:24:36;7.05;;;2.15;;
46689;SDS011;32423;45.398;10.874;2023-05-10T15:27:31;2.92;;;2.00;;
46689;SDS011;32423;45.398;10.874;2023-05-10T15:30:23;2.25;;;1.58;;
46689;SDS011;32423;45.398;10.874;2023-05-10T15:33:17;4.93;;;1.70;;
46689;SDS011;32423;45.398;10.874;2023-05-10T15:36:12;1.38;;;1.25;;
46689;SDS011;32423;45.398;10.874;2023-05-10T15:39:07;2.05;;;1.38;;
46689;SDS011;32423;45.398;10.874;2023-05-10T15:42:01;1.58;;;1.45;;
46689;SDS011;32423;45.398;10.874;2023-05-10T15:44:54;14.70;;;10.43;;
46689;SDS011;32423;45.398;10.874;2023-05-10T15:47:49;3.08;;;2.72;;
46689;SDS011;32423;45.398;10.874;2023-05-10T15:50:43;12.13;;;1.35;;
46689;SDS011;32423;45.398;10.874;2023-05-10T15:53:38;1.05;;;0.77;;
46689;SDS011;32423;45.398;10.874;2023-05-10T15:56:31;2.78;;;1.60;;
46689;SDS011;32423;45.398;10.874;2023-05-10T15:59:23;2.63;;;1.20;;
46689;SDS011;32423;45.398;10.874;2023-05-10T16:02:15;3.65;;;1.60;;
46689;SDS011;32423;45.398;10.874;2023-05-10T16:05:07;3.03;;;1.70;;
46689;SDS011;32423;45.398;10.874;2023-05-10T16:08:03;3.00;;;1.70;;
46689;SDS011;32423;45.398;10.874;2023-05-10T16:10:57;2.13;;;1.90;;
46689;SDS011;32423;45.398;10.874;2023-05-10T16:13:51;2.45;;;1.52;;
46689;SDS011;32423;45.398;10.874;2023-05-10T16:16:43;1.58;;;1.20;;
46689;SDS011;32423;45.398;10.874;2023-05-10T16:19:33;1.95;;;1.10;;
46689;SDS011;32423;45.398;10.874;2023-05-10T16:22:27;1.88;;;1.42;;
46689;SDS011;32423;45.398;10.874;2023-05-10T16:25:20;5.82;;;1.60;;
46689;SDS011;32423;45.398;10.874;2023-05-10T16:28:14;1.60;;;1.40;;
46689;SDS011;32423;45.398;10.874;2023-05-10T16:31:09;13.02;;;1.80;;
46689;SDS011;32423;45.398;10.874;2023-05-10T16:34:03;3.17;;;1.42;;
46689;SDS011;32423;45.398;10.874;2023-05-10T16:36:58;2.45;;;1.60;;
46689;SDS011;32423;45.398;10.874;2023-05-10T16:39:50;2.33;;;1.98;;
46689;SDS011;32423;45.398;10.874;2023-05-10T16:42:44;3.80;;;2.10;;
46689;SDS011;32423;45.398;10.874;2023-05-10T16:45:36;3.83;;;2.47;;
46689;SDS011;32423;45.398;10.874;2023-05-10T16:48:31;3.25;;;2.30;;
46689;SDS011;32423;45.398;10.874;2023-05-10T16:51:23;1999.90;;;999.90;;
46689;SDS011;32423;45.398;10.874;2023-05-10T16:54:15;1999.90;;;999.90;;
46689;SDS011;32423;45.398;10.874;2023-05-10T16:57:10;1976.07;;;570.70;;
46689;SDS011;32423;45.398;10.874;2023-05-10T16:59:59;1999.90;;;642.20;;
46689;SDS011;32423;45.398;10.874;2023-05-10T17:02:54;37.80;;;35.25;;
46689;SDS011;32423;45.398;10.874;2023-05-10T17:05:43;7.10;;;4.82;;
46689;SDS011;32423;45.398;10.874;2023-05-10T17:08:38;6.93;;;2.90;;
46689;SDS011;32423;45.398;10.874;2023-05-10T17:11:32;6.78;;;3.47;;
46689;SDS011;32423;45.398;10.874;2023-05-10T17:14:22;4.47;;;3.67;;
46689;SDS011;32423;45.398;10.874;2023-05-10T17:17:18;4.28;;;3.70;;
46689;SDS011;32423;45.398;10.874;2023-05-10T17:20:10;5.78;;;4.50;;
46689;SDS011;32423;45.398;10.874;2023-05-10T17:23:04;5.13;;;3.63;;
46689;SDS011;32423;45.398;10.874;2023-05-10T17:25:56;7.68;;;3.40;;
46689;SDS011;32423;45.398;10.874;2023-05-10T17:28:48;5.28;;;3.17;;
46689;SDS011;32423;45.398;10.874;2023-05-10T17:31:40;4.50;;;3.88;;
46689;SDS011;32423;45.398;10.874;2023-05-10T17:34:32;4.45;;;3.67;;
46689;SDS011;32423;45.398;10.874;2023-05-10T17:37:27;6.07;;;3.33;;
46689;SDS011;32423;45.398;10.874;2023-05-10T17:40:21;3.97;;;2.80;;
46689;SDS011;32423;45.398;10.874;2023-05-10T17:43:13;4.43;;;3.22;;